sensor_id;sensor_type;location;lat;lon;timestamp;P1;durP1;ratioP1;P2;durP2;ratioP2
55663;SDS011;41540;57.880;12.164;2023-03-13T00:09:37;4.18;;;1.60;;
55663;SDS011;41540;57.880;12.164;2023-03-13T00:19:38;2.95;;;1.42;;
55663;SDS011;41540;57.880;12.164;2023-03-13T00:29:38;1.45;;;1.35;;
55663;SDS011;41540;57.880;12.164;2023-03-13T00:39:39;1.33;;;1.15;;
55663;SDS011;41540;57.880;12.164;2023-03-13T00:49:39;1.50;;;1.40;;
55663;SDS011;41540;57.880;12.164;2023-03-13T00:59:40;1.25;;;1.15;;
55663;SDS011;41540;57.880;12.164;2023-03-13T01:09:41;1.63;;;1.52;;
55663;SDS011;41540;57.880;12.164;2023-03-13T01:19:42;1.40;;;1.30;;
55663;SDS011;41540;57.880;12.164;2023-03-13T01:29:44;1.23;;;1.20;;
55663;SDS011;41540;57.880;12.164;2023-03-13T01:39:45;1.63;;;1.02;;
55663;SDS011;41540;57.880;12.164;2023-03-13T01:49:45;1.35;;;1.25;;
55663;SDS011;41540;57.880;12.164;2023-03-13T01:59:50;1.20;;;1.05;;
55663;SDS011;41540;57.880;12.164;2023-03-13T02:09:52;1.60;;;1.50;;
55663;SDS011;41540;57.880;12.164;2023-03-13T02:19:53;1.00;;;1.00;;
55663;SDS011;41540;57.880;12.164;2023-03-13T02:29:58;1.85;;;1.60;;
55663;SDS011;41540;57.880;12.164;2023-03-13T02:40:05;0.97;;;0.80;;
55663;SDS011;41540;57.880;12.164;2023-03-13T02:50:14;2.45;;;1.02;;
55663;SDS011;41540;57.880;12.164;2023-03-13T03:00:17;0.77;;;0.77;;
55663;SDS011;41540;57.880;12.164;2023-03-13T03:10:18;0.75;;;0.75;;
55663;SDS011;41540;57.880;12.164;2023-03-13T03:20:27;0.98;;;0.98;;
55663;SDS011;41540;57.880;12.164;2023-03-13T04:42:38;0.70;;;0.70;;
55663;SDS011;41540;57.880;12.164;2023-03-13T04:52:44;0.70;;;0.70;;
55663;SDS011;41540;57.880;12.164;2023-03-13T05:02:45;1.65;;;1.23;;
55663;SDS011;41540;57.880;12.164;2023-03-13T05:12:45;0.52;;;0.52;;
55663;SDS011;41540;57.880;12.164;2023-03-13T05:22:46;0.70;;;0.70;;
55663;SDS011;41540;57.880;12.164;2023-03-13T05:32:46;1.02;;;0.60;;
55663;SDS011;41540;57.880;12.164;2023-03-13T05:42:47;0.55;;;0.55;;
55663;SDS011;41540;57.880;12.164;2023-03-13T05:52:49;0.40;;;0.40;;
55663;SDS011;41540;57.880;12.164;2023-03-13T06:02:50;0.68;;;0.68;;
55663;SDS011;41540;57.880;12.164;2023-03-13T06:12:53;0.65;;;0.65;;
55663;SDS011;41540;57.880;12.164;2023-03-13T06:22:53;0.80;;;0.80;;
55663;SDS011;41540;57.880;12.164;2023-03-13T06:32:53;1.00;;;0.70;;
55663;SDS011;41540;57.880;12.164;2023-03-13T06:42:53;1.17;;;0.85;;
55663;SDS011;41540;57.880;12.164;2023-03-13T06:52:55;0.90;;;0.85;;
55663;SDS011;41540;57.880;12.164;2023-03-13T07:02:56;0.90;;;0.90;;
55663;SDS011;41540;57.880;12.164;2023-03-13T07:12:57;1.15;;;0.82;;
55663;SDS011;41540;57.880;12.164;2023-03-13T07:23:00;1.08;;;0.82;;
55663;SDS011;41540;57.880;12.164;2023-03-13T07:33:17;0.85;;;0.85;;
55663;SDS011;41540;57.880;12.164;2023-03-13T08:04:21;0.85;;;0.85;;
55663;SDS011;41540;57.880;12.164;2023-03-13T08:14:25;30.48;;;1.75;;
55663;SDS011;41540;57.880;12.164;2023-03-13T08:24:28;0.73;;;0.70;;
55663;SDS011;41540;57.880;12.164;2023-03-13T08:34:29;0.90;;;0.90;;
55663;SDS011;41540;57.880;12.164;2023-03-13T08:44:31;0.70;;;0.70;;
55663;SDS011;41540;57.880;12.164;2023-03-13T08:54:32;1.08;;;0.77;;
55663;SDS011;41540;57.880;12.164;2023-03-13T09:04:33;0.70;;;0.70;;
55663;SDS011;41540;57.880;12.164;2023-03-13T09:14:35;0.50;;;0.50;;
55663;SDS011;41540;57.880;12.164;2023-03-13T10:58:48;0.43;;;0.43;;
55663;SDS011;41540;57.880;12.164;2023-03-13T12:00:45;0.70;;;0.70;;
55663;SDS011;41540;57.880;12.164;2023-03-13T12:21:37;0.60;;;0.60;;
55663;SDS011;41540;57.880;12.164;2023-03-13T13:03:05;0.40;;;0.40;;
55663;SDS011;41540;57.880;12.164;2023-03-13T13:13:34;0.60;;;0.50;;
55663;SDS011;41540;57.880;12.164;2023-03-13T13:34:53;1.30;;;0.60;;
55663;SDS011;41540;57.880;12.164;2023-03-13T14:36:19;9.35;;;2.97;;
55663;SDS011;41540;57.880;12.164;2023-03-13T14:46:22;18.20;;;4.55;;
55663;SDS011;41540;57.880;12.164;2023-03-13T14:56:32;33.75;;;8.15;;
55663;SDS011;41540;57.880;12.164;2023-03-13T15:06:33;38.90;;;8.20;;
55663;SDS011;41540;57.880;12.164;2023-03-13T15:16:36;20.38;;;6.07;;
55663;SDS011;41540;57.880;12.164;2023-03-13T16:29:55;18.98;;;6.32;;
55663;SDS011;41540;57.880;12.164;2023-03-13T16:39:55;48.75;;;11.63;;
55663;SDS011;41540;57.880;12.164;2023-03-13T16:49:55;14.77;;;4.90;;
55663;SDS011;41540;57.880;12.164;2023-03-13T17:00:02;24.70;;;6.20;;
55663;SDS011;41540;57.880;12.164;2023-03-13T17:10:22;24.98;;;6.00;;
55663;SDS011;41540;57.880;12.164;2023-03-13T17:20:25;17.48;;;5.57;;
55663;SDS011;41540;57.880;12.164;2023-03-13T17:30:28;18.13;;;5.07;;
55663;SDS011;41540;57.880;12.164;2023-03-13T17:40:29;5.63;;;2.90;;
55663;SDS011;41540;57.880;12.164;2023-03-13T17:50:31;10.90;;;4.80;;
55663;SDS011;41540;57.880;12.164;2023-03-13T18:00:31;5.35;;;2.22;;
55663;SDS011;41540;57.880;12.164;2023-03-13T18:10:32;8.18;;;3.33;;
55663;SDS011;41540;57.880;12.164;2023-03-13T18:20:33;4.32;;;2.42;;
55663;SDS011;41540;57.880;12.164;2023-03-13T18:30:33;9.60;;;3.28;;
55663;SDS011;41540;57.880;12.164;2023-03-13T18:40:33;11.40;;;4.07;;
55663;SDS011;41540;57.880;12.164;2023-03-13T18:50:40;10.02;;;2.22;;
55663;SDS011;41540;57.880;12.164;2023-03-13T19:00:40;13.45;;;4.15;;
55663;SDS011;41540;57.880;12.164;2023-03-13T19:10:42;6.18;;;2.38;;
55663;SDS011;41540;57.880;12.164;2023-03-13T19:20:45;11.05;;;2.22;;
55663;SDS011;41540;57.880;12.164;2023-03-13T19:30:45;9.32;;;2.88;;
55663;SDS011;41540;57.880;12.164;2023-03-13T19:40:46;15.93;;;5.20;;
55663;SDS011;41540;57.880;12.164;2023-03-13T19:50:49;6.28;;;2.22;;
55663;SDS011;41540;57.880;12.164;2023-03-13T20:00:53;9.93;;;3.10;;
55663;SDS011;41540;57.880;12.164;2023-03-13T20:11:08;5.68;;;2.40;;
55663;SDS011;41540;57.880;12.164;2023-03-13T20:21:16;2.67;;;1.48;;
55663;SDS011;41540;57.880;12.164;2023-03-13T20:31:20;9.35;;;2.20;;
55663;SDS011;41540;57.880;12.164;2023-03-13T20:41:23;11.37;;;3.97;;
55663;SDS011;41540;57.880;12.164;2023-03-13T20:51:32;21.38;;;6.90;;
55663;SDS011;41540;57.880;12.164;2023-03-13T21:01:34;30.88;;;10.93;;
55663;SDS011;41540;57.880;12.164;2023-03-13T21:11:36;59.05;;;12.13;;
55663;SDS011;41540;57.880;12.164;2023-03-13T21:21:37;36.25;;;7.93;;
55663;SDS011;41540;57.880;12.164;2023-03-13T21:31:37;35.38;;;10.32;;
55663;SDS011;41540;57.880;12.164;2023-03-13T21:41:39;42.85;;;7.97;;
55663;SDS011;41540;57.880;12.164;2023-03-13T21:51:39;40.25;;;8.18;;
55663;SDS011;41540;57.880;12.164;2023-03-13T22:01:44;46.90;;;12.15;;
55663;SDS011;41540;57.880;12.164;2023-03-13T22:11:45;33.20;;;10.85;;
55663;SDS011;41540;57.880;12.164;2023-03-13T22:21:45;47.30;;;8.70;;
55663;SDS011;41540;57.880;12.164;2023-03-13T22:31:45;14.15;;;5.22;;
55663;SDS011;41540;57.880;12.164;2023-03-13T22:41:46;44.70;;;10.00;;
55663;SDS011;41540;57.880;12.164;2023-03-13T22:51:48;21.38;;;7.95;;
55663;SDS011;41540;57.880;12.164;2023-03-13T23:01:49;31.13;;;7.03;;
55663;SDS011;41540;57.880;12.164;2023-03-13T23:11:56;26.48;;;7.25;;
55663;SDS011;41540;57.880;12.164;2023-03-13T23:21:57;20.08;;;5.40;;
55663;SDS011;41540;57.880;12.164;2023-03-13T23:31:57;11.70;;;5.57;;
55663;SDS011;41540;57.880;12.164;2023-03-13T23:42:00;24.23;;;4.05;;
55663;SDS011;41540;57.880;12.164;2023-03-13T23:52:00;24.15;;;5.85;;
